Time;durP1;ratioP1;P1;durP2;ratioP2;P2;SDS_P1;SDS_P2;PMS_P1;PMS_P2;Temp;Humidity;BMP_temperature;BMP_pressure;BME280_temperature;BME280_humidity;BME280_pressure;Samples;Min_cycle;Max_cycle;Signal;HPM_P1;HPM_P2
2023/07/06 00:02:03;;;;;;;3.08;2.10;;;14.70;99.90;;;;;;4998281;28;20172;-94
2023/07/06 00:04:29;;;;;;;3.53;2.10;;;14.70;99.90;;;;;;5031223;28;20578;-92
2023/07/06 00:06:55;;;;;;;3.28;1.90;;;14.80;99.90;;;;;;5031053;28;20167;-93
2023/07/06 00:09:21;;;;;;;3.33;2.00;;;14.80;99.90;;;;;;5015023;28;20655;-93
2023/07/06 00:11:47;;;;;;;2.25;1.75;;;14.80;99.90;;;;;;4998443;28;20198;-93
2023/07/06 00:14:14;;;;;;;6.90;2.33;;;14.80;99.90;;;;;;4997825;28;20195;-93
2023/07/06 00:16:44;;;;;;;4.60;2.22;;;14.80;99.90;;;;;;4997864;28;20639;-93
2023/07/06 00:19:10;;;;;;;3.05;2.00;;;14.80;99.90;;;;;;4997735;28;20168;-94
2023/07/06 00:21:36;;;;;;;4.32;2.05;;;14.80;99.90;;;;;;4997702;28;20524;-92
2023/07/06 00:24:02;;;;;;;4.20;1.95;;;14.70;99.90;;;;;;4997760;28;20245;-93
2023/07/06 00:26:28;;;;;;;3.70;2.00;;;14.80;99.90;;;;;;4997727;28;20179;-94
2023/07/06 00:28:55;;;;;;;2.70;1.90;;;14.80;99.90;;;;;;4997212;28;20214;-93
2023/07/06 00:31:32;;;;;;;4.45;2.00;;;14.80;99.90;;;;;;4997592;28;20179;-94
2023/07/06 00:34:05;;;;;;;4.22;2.10;;;14.80;99.90;;;;;;4997468;28;20777;-94
2023/07/06 00:39:19;;;;;;;3.35;1.98;;;14.70;99.90;;;;;;5224752;23;20242;-87
2023/07/06 00:41:45;;;;;;;3.40;2.20;;;14.70;99.90;;;;;;4902432;29;20186;-87
2023/07/06 00:44:49;;;;;;;3.95;2.10;;;14.60;99.90;;;;;;4933903;29;20205;-87
2023/07/06 00:47:17;;;;;;;4.28;2.17;;;14.60;99.90;;;;;;4902270;29;20193;-89
2023/07/06 00:49:45;;;;;;;4.82;2.50;;;14.50;99.90;;;;;;4919410;29;20199;-89
2023/07/06 00:52:11;;;;;;;4.18;2.20;;;14.50;99.90;;;;;;4902030;29;20175;-88
2023/07/06 00:54:40;;;;;;;4.15;2.35;;;14.50;99.90;;;;;;4918260;29;20969;-87
2023/07/06 00:57:09;;;;;;;5.30;2.05;;;14.50;99.90;;;;;;4901551;29;20266;-88
2023/07/06 00:59:40;;;;;;;3.00;2.20;;;14.40;99.90;;;;;;4901706;29;20234;-87
2023/07/06 01:02:09;;;;;;;2.95;1.98;;;14.50;99.90;;;;;;4902391;29;20190;-88
2023/07/06 01:04:35;;;;;;;3.33;1.95;;;14.50;99.90;;;;;;4901737;29;20182;-87
2023/07/06 01:07:02;;;;;;;6.93;2.00;;;14.40;99.90;;;;;;4901552;29;20561;-87
2023/07/06 01:09:29;;;;;;;3.25;1.80;;;14.40;99.90;;;;;;4910680;29;20186;-89
2023/07/06 01:11:55;;;;;;;3.50;2.15;;;14.40;99.90;;;;;;4920500;29;20170;-86
2023/07/06 01:14:21;;;;;;;3.88;1.83;;;14.40;99.90;;;;;;4937209;29;20261;-87
2023/07/06 01:16:47;;;;;;;4.95;1.85;;;14.30;99.90;;;;;;4937599;29;20261;-87
2023/07/06 01:19:25;;;;;;;4.82;2.08;;;14.30;99.90;;;;;;4920291;29;20181;-85
2023/07/06 01:22:13;;;;;;;3.03;2.10;;;14.40;99.90;;;;;;4920573;29;20240;-86
2023/07/06 01:25:00;;;;;;;2.78;1.80;;;14.30;99.90;;;;;;4936912;29;20166;-86
2023/07/06 01:28:11;;;;;;;3.00;1.88;;;14.30;99.90;;;;;;4937515;29;20166;-87
2023/07/06 01:31:02;;;;;;;3.72;1.80;;;14.20;99.90;;;;;;4936798;29;20826;-87
2023/07/06 01:33:47;;;;;;;3.83;2.30;;;14.20;99.90;;;;;;4920271;29;20189;-85
2023/07/06 01:36:44;;;;;;;3.30;2.00;;;14.20;99.90;;;;;;4937376;29;20221;-86
2023/07/06 01:39:11;;;;;;;2.45;1.80;;;14.20;99.90;;;;;;4911846;29;20276;-86
2023/07/06 01:41:36;;;;;;;3.03;2.15;;;14.20;99.90;;;;;;4937040;29;20262;-87
2023/07/06 01:44:04;;;;;;;2.30;1.65;;;14.10;99.90;;;;;;4920049;29;20352;-89
2023/07/06 01:46:30;;;;;;;3.22;2.00;;;14.20;99.90;;;;;;4936199;29;20182;-86
2023/07/06 01:48:56;;;;;;;2.60;1.70;;;14.10;99.90;;;;;;4937070;29;20174;-86
2023/07/06 01:51:33;;;;;;;3.45;2.05;;;14.10;99.90;;;;;;4919812;29;20178;-86
2023/07/06 01:54:07;;;;;;;3.05;2.03;;;14.10;99.90;;;;;;4919266;29;20182;-87
2023/07/06 01:56:45;;;;;;;4.68;2.00;;;14.10;99.90;;;;;;4937158;29;20245;-87
2023/07/06 01:59:17;;;;;;;3.38;1.70;;;14.10;99.90;;;;;;4919613;29;20252;-86
2023/07/06 02:01:47;;;;;;;2.30;2.00;;;14.00;99.90;;;;;;4920252;29;20189;-86
2023/07/06 02:04:13;;;;;;;2.97;1.95;;;14.00;99.90;;;;;;4919760;29;20205;-87
2023/07/06 02:06:40;;;;;;;2.58;1.85;;;14.00;99.90;;;;;;4919848;29;20661;-86
2023/07/06 02:09:06;;;;;;;3.15;2.40;;;14.10;99.90;;;;;;4919562;29;20277;-86
2023/07/06 02:11:35;;;;;;;3.42;2.03;;;14.10;99.90;;;;;;4919557;29;20643;-86
2023/07/06 02:14:00;;;;;;;4.47;1.85;;;14.10;99.90;;;;;;4919731;29;20222;-86
2023/07/06 02:16:26;;;;;;;3.22;2.00;;;14.20;99.90;;;;;;4919646;29;20245;-85
2023/07/06 02:18:53;;;;;;;4.55;2.35;;;14.20;99.90;;;;;;4919437;29;20209;-86
2023/07/06 02:21:22;;;;;;;3.25;2.10;;;14.20;99.90;;;;;;4919463;29;20221;-85
2023/07/06 02:23:47;;;;;;;2.60;1.98;;;14.20;99.90;;;;;;4919376;29;20189;-86
2023/07/06 02:26:13;;;;;;;3.50;2.33;;;14.20;99.90;;;;;;4919679;29;20189;-86
2023/07/06 02:28:38;;;;;;;10.05;2.40;;;14.30;99.90;;;;;;4919564;29;20188;-85
2023/07/06 02:31:05;;;;;;;2.88;1.92;;;14.30;99.90;;;;;;4919543;29;20185;-86
2023/07/06 02:33:34;;;;;;;3.08;2.08;;;14.30;99.90;;;;;;4919359;29;20178;-87
2023/07/06 02:35:59;;;;;;;2.13;1.92;;;14.30;99.90;;;;;;4919659;29;20178;-88
2023/07/06 02:38:29;;;;;;;3.67;2.22;;;14.30;99.90;;;;;;4919222;29;20229;-86
2023/07/06 02:40:57;;;;;;;4.72;1.98;;;14.30;99.90;;;;;;4919108;29;20224;-86
2023/07/06 02:43:25;;;;;;;4.40;2.60;;;14.30;99.90;;;;;;4919109;29;20182;-85
2023/07/06 02:45:51;;;;;;;6.05;2.38;;;14.40;99.90;;;;;;4936276;29;20241;-85
2023/07/06 02:48:19;;;;;;;3.75;2.38;;;14.30;99.90;;;;;;4919399;29;20620;-86
2023/07/06 02:50:52;;;;;;;4.93;2.42;;;14.30;99.90;;;;;;4919187;29;20190;-87
2023/07/06 02:53:18;;;;;;;3.03;1.98;;;14.30;99.90;;;;;;4919206;29;20178;-86
2023/07/06 02:55:48;;;;;;;3.88;2.50;;;14.40;99.90;;;;;;4919184;29;20193;-88
2023/07/06 02:58:14;;;;;;;4.88;2.50;;;14.40;99.90;;;;;;4937558;29;20257;-85
2023/07/06 03:00:41;;;;;;;2.78;2.08;;;14.30;99.90;;;;;;4922698;29;20668;-86
2023/07/06 03:03:08;;;;;;;4.10;2.33;;;14.30;99.90;;;;;;4922767;29;20629;-86
2023/07/06 03:05:36;;;;;;;5.05;2.17;;;14.20;99.90;;;;;;4922762;29;20241;-86
2023/07/06 03:08:03;;;;;;;2.90;2.38;;;14.10;99.90;;;;;;4939554;29;20177;-86
2023/07/06 03:10:31;;;;;;;6.00;2.47;;;14.10;99.90;;;;;;4921318;29;20186;-86
2023/07/06 03:12:57;;;;;;;4.32;2.40;;;14.10;99.90;;;;;;4935437;29;20178;-86
2023/07/06 03:15:23;;;;;;;5.32;2.33;;;14.10;99.90;;;;;;4903606;29;20634;-86
2023/07/06 03:17:51;;;;;;;3.35;2.28;;;14.00;99.90;;;;;;4903798;29;20195;-87
2023/07/06 03:20:19;;;;;;;3.40;2.58;;;14.00;99.90;;;;;;4902841;29;20597;-84
2023/07/06 03:22:51;;;;;;;2.88;2.28;;;13.90;99.90;;;;;;4903394;29;20230;-86
2023/07/06 03:25:35;;;;;;;5.88;2.42;;;13.90;99.90;;;;;;4903011;29;20542;-86
2023/07/06 03:28:01;;;;;;;4.63;2.17;;;13.90;99.90;;;;;;4935005;29;20182;-86
2023/07/06 03:30:29;;;;;;;3.08;2.08;;;13.90;99.90;;;;;;4934925;29;20186;-85
2023/07/06 03:32:55;;;;;;;4.53;2.42;;;13.80;99.90;;;;;;4918966;29;20181;-86
2023/07/06 03:35:24;;;;;;;3.47;2.20;;;13.80;99.90;;;;;;4920288;29;20183;-86
2023/07/06 03:37:50;;;;;;;5.00;2.30;;;13.80;99.90;;;;;;4920131;29;20174;-86
2023/07/06 03:40:17;;;;;;;5.20;2.30;;;13.70;99.90;;;;;;4936359;29;20213;-88
2023/07/06 03:42:45;;;;;;;3.38;2.22;;;13.80;99.90;;;;;;4922378;29;20174;-88
2023/07/06 03:45:12;;;;;;;4.38;2.17;;;13.80;99.90;;;;;;4922325;29;20610;-88
2023/07/06 03:47:42;;;;;;;3.05;2.13;;;13.80;99.90;;;;;;4922338;29;20264;-87
2023/07/06 03:50:09;;;;;;;4.05;2.50;;;13.80;99.90;;;;;;4922187;29;20181;-86
2023/07/06 03:52:39;;;;;;;3.35;2.25;;;13.70;99.90;;;;;;4921609;29;20260;-86
2023/07/06 03:55:08;;;;;;;3.15;2.30;;;13.70;99.90;;;;;;4938756;29;20178;-87
2023/07/06 03:57:34;;;;;;;3.97;2.28;;;13.60;99.90;;;;;;4921950;29;20260;-88
2023/07/06 04:00:04;;;;;;;3.25;2.22;;;13.50;99.90;;;;;;4938425;29;20210;-86
2023/07/06 04:02:30;;;;;;;3.85;2.13;;;13.50;99.90;;;;;;4921666;29;20182;-86
2023/07/06 04:04:55;;;;;;;3.60;2.35;;;13.50;99.90;;;;;;4938662;29;20174;-87
2023/07/06 04:07:21;;;;;;;4.28;2.70;;;13.40;99.90;;;;;;4938639;29;20338;-87
2023/07/06 04:09:47;;;;;;;3.28;2.40;;;13.40;99.90;;;;;;4920240;29;20178;-86
2023/07/06 04:12:13;;;;;;;3.63;2.28;;;13.40;99.90;;;;;;4921519;29;20225;-86
2023/07/06 04:14:39;;;;;;;3.20;2.50;;;13.40;99.90;;;;;;4938388;29;20222;-86
2023/07/06 04:17:07;;;;;;;3.47;2.60;;;13.50;99.90;;;;;;4921490;29;20189;-86
2023/07/06 04:19:34;;;;;;;3.97;2.38;;;13.60;99.90;;;;;;4921125;29;20241;-86
2023/07/06 04:22:00;;;;;;;3.40;2.53;;;13.70;99.90;;;;;;4921274;29;20189;-86
2023/07/06 04:24:31;;;;;;;7.00;2.70;;;13.70;99.90;;;;;;4921052;29;20174;-86
2023/07/06 04:27:01;;;;;;;5.47;3.00;;;13.80;99.90;;;;;;4921555;29;20233;-87
2023/07/06 04:29:29;;;;;;;4.20;2.90;;;13.90;99.90;;;;;;4938194;29;20173;-87
2023/07/06 04:31:56;;;;;;;4.50;2.97;;;13.90;99.90;;;;;;4920998;29;20233;-86
2023/07/06 04:34:23;;;;;;;5.22;2.80;;;14.00;99.90;;;;;;4920915;29;20229;-85
2023/07/06 04:36:49;;;;;;;3.95;2.95;;;14.00;99.90;;;;;;4921290;29;20276;-88
2023/07/06 04:39:15;;;;;;;4.57;2.92;;;14.10;99.90;;;;;;4931462;29;20611;-87
2023/07/06 04:41:43;;;;;;;3.30;2.72;;;14.10;99.90;;;;;;4921457;29;20197;-85
2023/07/06 04:44:10;;;;;;;6.93;3.30;;;14.20;99.90;;;;;;4921145;29;20179;-85
2023/07/06 04:46:36;;;;;;;4.85;3.28;;;14.30;99.90;;;;;;4937879;29;20229;-85
2023/07/06 04:49:02;;;;;;;6.18;3.35;;;14.50;99.90;;;;;;4920733;29;20270;-86
2023/07/06 04:51:28;;;;;;;5.15;3.53;;;14.60;99.90;;;;;;4920677;29;20293;-86
2023/07/06 04:53:54;;;;;;;7.65;3.58;;;14.80;99.90;;;;;;4937460;29;20657;-84
2023/07/06 04:56:21;;;;;;;4.63;3.42;;;14.90;99.90;;;;;;4920450;29;20241;-85
2023/07/06 04:58:47;;;;;;;4.95;3.33;;;15.00;99.90;;;;;;4920547;29;20184;-84
2023/07/06 05:01:14;;;;;;;4.82;3.75;;;15.10;99.90;;;;;;4920290;29;20218;-85
2023/07/06 05:03:41;;;;;;;5.35;3.67;;;15.20;99.90;;;;;;4920251;29;20185;-84
2023/07/06 05:06:12;;;;;;;8.55;3.92;;;15.20;99.90;;;;;;4952055;29;20182;-86
2023/07/06 05:08:43;;;;;;;8.40;5.38;;;15.30;99.90;;;;;;4920363;29;20249;-87
2023/07/06 05:11:09;;;;;;;5.40;4.38;;;15.30;99.90;;;;;;4919915;29;20174;-84
2023/07/06 05:13:35;;;;;;;7.90;5.03;;;15.40;99.90;;;;;;4920093;29;20185;-84
2023/07/06 05:16:00;;;;;;;7.10;4.90;;;15.40;99.90;;;;;;4920254;29;20272;-84
2023/07/06 05:18:26;;;;;;;7.63;5.13;;;15.40;99.90;;;;;;4919885;29;20181;-86
2023/07/06 05:20:56;;;;;;;8.60;4.90;;;15.40;99.90;;;;;;4936817;29;20352;-85
2023/07/06 05:23:25;;;;;;;6.57;5.20;;;15.50;99.90;;;;;;4936514;29;20206;-84
2023/07/06 05:26:03;;;;;;;7.53;5.85;;;15.50;99.90;;;;;;4936770;29;20256;-87
2023/07/06 05:28:30;;;;;;;7.13;5.57;;;15.50;99.90;;;;;;4926645;29;20272;-85
2023/07/06 05:30:57;;;;;;;7.50;4.90;;;15.50;99.90;;;;;;4932934;29;20593;-84
2023/07/06 05:33:23;;;;;;;7.97;5.55;;;15.70;99.90;;;;;;4936362;29;20635;-87
2023/07/06 05:35:49;;;;;;;6.82;5.00;;;15.70;99.90;;;;;;4929536;29;20593;-87
2023/07/06 05:38:15;;;;;;;7.88;5.50;;;15.70;99.90;;;;;;4935062;29;20237;-87
2023/07/06 05:40:41;;;;;;;7.82;5.00;;;15.70;99.90;;;;;;4919892;29;20222;-84
2023/07/06 05:43:10;;;;;;;8.75;5.78;;;15.70;99.90;;;;;;4924441;29;20186;-84
2023/07/06 05:45:35;;;;;;;8.57;5.05;;;15.70;99.90;;;;;;4901696;29;20189;-86
2023/07/06 05:48:02;;;;;;;5.13;4.57;;;15.80;99.90;;;;;;4919545;29;20261;-85
2023/07/06 05:50:27;;;;;;;7.45;5.65;;;15.80;99.90;;;;;;4919504;29;20182;-85
2023/07/06 05:52:53;;;;;;;7.05;5.55;;;15.90;99.90;;;;;;4919459;29;20186;-86
2023/07/06 05:55:19;;;;;;;7.43;5.55;;;15.80;99.90;;;;;;4919208;29;20174;-85
2023/07/06 05:57:45;;;;;;;8.73;5.38;;;15.80;99.90;;;;;;4919436;29;20236;-85
2023/07/06 06:00:13;;;;;;;6.30;5.35;;;15.80;99.90;;;;;;4936815;29;20275;-87
2023/07/06 06:02:39;;;;;;;5.72;4.18;;;15.80;99.90;;;;;;4909899;29;20179;-85
2023/07/06 06:05:06;;;;;;;7.05;5.30;;;15.90;99.90;;;;;;4909916;29;20214;-86
2023/07/06 06:07:33;;;;;;;6.38;4.82;;;16.00;99.90;;;;;;4947606;29;20225;-84
2023/07/06 06:10:03;;;;;;;6.78;4.55;;;16.00;99.90;;;;;;4935778;29;20174;-87
2023/07/06 06:12:31;;;;;;;6.70;5.20;;;16.10;99.90;;;;;;4919509;29;20264;-84
2023/07/06 06:14:57;;;;;;;6.07;4.45;;;16.10;99.90;;;;;;4936779;29;20639;-86
2023/07/06 06:17:26;;;;;;;6.20;4.22;;;16.10;99.90;;;;;;4936505;29;20178;-84
2023/07/06 06:19:52;;;;;;;6.80;4.43;;;16.20;99.90;;;;;;4919460;29;20209;-88
2023/07/06 06:22:20;;;;;;;6.50;4.28;;;16.20;99.90;;;;;;4936781;29;20182;-86
2023/07/06 06:24:46;;;;;;;6.88;4.20;;;16.30;99.90;;;;;;4936075;29;20177;-85
2023/07/06 06:27:17;;;;;;;6.85;3.72;;;16.40;99.90;;;;;;4919277;29;20186;-85
2023/07/06 06:29:43;;;;;;;4.97;3.63;;;16.50;99.90;;;;;;4919511;29;20213;-86
2023/07/06 06:32:11;;;;;;;7.50;3.97;;;16.50;99.90;;;;;;4919259;29;20264;-86
2023/07/06 06:34:38;;;;;;;6.78;3.50;;;16.50;99.90;;;;;;4923126;29;20181;-86
2023/07/06 06:37:04;;;;;;;4.35;3.15;;;16.50;99.90;;;;;;4923188;29;20264;-85
2023/07/06 06:39:31;;;;;;;7.00;3.45;;;16.60;99.90;;;;;;4922794;29;20233;-87
2023/07/06 06:41:57;;;;;;;8.13;3.20;;;16.70;99.90;;;;;;4923155;29;20268;-85
2023/07/06 06:44:22;;;;;;;4.18;2.88;;;16.90;99.90;;;;;;4940110;29;20297;-85
2023/07/06 06:46:48;;;;;;;5.10;2.45;;;17.00;99.90;;;;;;4922902;29;20200;-85
2023/07/06 06:49:14;;;;;;;4.47;2.80;;;17.00;99.90;;;;;;4940135;29;20620;-86
2023/07/06 06:51:40;;;;;;;4.97;2.60;;;17.10;99.90;;;;;;4922790;29;20625;-85
2023/07/06 06:54:06;;;;;;;3.70;2.50;;;17.20;99.90;;;;;;4939251;29;20257;-84
2023/07/06 06:56:32;;;;;;;7.90;2.63;;;17.30;99.90;;;;;;4922904;29;20213;-86
2023/07/06 06:58:58;;;;;;;4.05;2.40;;;17.50;99.90;;;;;;4922681;29;20185;-84
2023/07/06 07:01:25;;;;;;;2.97;1.98;;;17.60;99.90;;;;;;4922556;29;20206;-85
2023/07/06 07:03:51;;;;;;;3.45;2.35;;;17.70;99.90;;;;;;4939820;29;20228;-84
2023/07/06 07:06:17;;;;;;;3.47;2.42;;;17.80;99.90;;;;;;4922733;29;20222;-86
2023/07/06 07:08:45;;;;;;;4.10;2.60;;;18.00;99.90;;;;;;4922228;29;20561;-85
2023/07/06 07:11:11;;;;;;;4.60;2.15;;;18.00;99.90;;;;;;4939532;29;20216;-85
2023/07/06 07:13:38;;;;;;;3.85;2.10;;;18.20;99.90;;;;;;4939197;29;20233;-85
2023/07/06 07:16:05;;;;;;;4.10;2.20;;;18.40;99.90;;;;;;4939531;29;20182;-86
2023/07/06 07:18:33;;;;;;;4.85;1.85;;;18.60;99.90;;;;;;4922586;29;20652;-85
2023/07/06 07:21:01;;;;;;;3.60;1.90;;;18.60;99.90;;;;;;4939364;29;20222;-86
2023/07/06 07:23:40;;;;;;;4.80;2.17;;;18.70;99.90;;;;;;4921897;29;20496;-87
2023/07/06 07:26:08;;;;;;;5.50;2.10;;;18.80;99.90;;;;;;4939677;29;20154;-84
2023/07/06 07:28:33;;;;;;;3.65;2.05;;;18.80;99.90;;;;;;4922492;29;20186;-85
2023/07/06 07:31:01;;;;;;;6.03;1.92;;;18.80;99.90;;;;;;4939084;29;20185;-86
2023/07/06 07:33:28;;;;;;;3.65;1.63;;;19.00;99.90;;;;;;4922038;29;20629;-85
2023/07/06 07:35:58;;;;;;;5.65;1.83;;;19.10;99.90;;;;;;4921995;29;20182;-84
2023/07/06 07:38:24;;;;;;;2.88;1.83;;;19.20;99.90;;;;;;4921631;29;20238;-85
2023/07/06 07:40:56;;;;;;;3.33;1.73;;;19.20;99.90;;;;;;4921986;29;20268;-85
2023/07/06 07:43:26;;;;;;;2.67;1.63;;;19.30;99.90;;;;;;4922006;29;20577;-84
2023/07/06 07:45:57;;;;;;;5.05;1.80;;;19.40;99.90;;;;;;4937643;29;20225;-84
2023/07/06 07:48:24;;;;;;;3.95;2.15;;;19.40;99.90;;;;;;4921946;29;20288;-85
2023/07/06 07:50:53;;;;;;;5.47;1.85;;;19.40;99.90;;;;;;4922077;29;20579;-84
2023/07/06 07:53:23;;;;;;;3.60;2.10;;;19.50;99.90;;;;;;4921264;29;20178;-84
2023/07/06 07:55:49;;;;;;;6.53;2.08;;;19.40;99.90;;;;;;4939002;29;20174;-86
2023/07/06 07:58:15;;;;;;;4.60;2.05;;;19.50;99.90;;;;;;4921371;29;20178;-87
2023/07/06 08:00:47;;;;;;;3.35;1.65;;;19.60;99.90;;;;;;4921382;29;20657;-86
2023/07/06 08:03:15;;;;;;;5.43;1.85;;;19.80;99.90;;;;;;4921481;29;20218;-83
2023/07/06 08:05:42;;;;;;;2.63;1.60;;;19.90;99.90;;;;;;4921366;29;20516;-86
2023/07/06 08:08:09;;;;;;;7.40;1.80;;;19.90;99.90;;;;;;4921214;29;20249;-85
2023/07/06 08:10:39;;;;;;;2.55;1.50;;;19.80;99.90;;;;;;4938576;29;20189;-83
2023/07/06 08:13:09;;;;;;;3.65;1.55;;;20.10;99.90;;;;;;4938351;29;20174;-85
2023/07/06 08:15:38;;;;;;;4.28;1.92;;;20.20;99.90;;;;;;4938518;29;20176;-86
2023/07/06 08:18:06;;;;;;;4.75;1.80;;;20.30;99.90;;;;;;4921217;29;20181;-85
2023/07/06 08:20:35;;;;;;;4.07;1.50;;;20.10;99.90;;;;;;4921226;29;20252;-86
2023/07/06 08:23:03;;;;;;;1.98;1.40;;;20.00;99.90;;;;;;4938214;29;20197;-84
2023/07/06 08:25:40;;;;;;;3.58;1.45;;;19.90;99.90;;;;;;4921254;29;20533;-85
2023/07/06 08:28:09;;;;;;;4.32;1.60;;;19.90;99.90;;;;;;4921341;29;20177;-86
2023/07/06 08:30:36;;;;;;;5.82;1.65;;;20.10;99.90;;;;;;4938203;29;20182;-85
2023/07/06 08:33:02;;;;;;;4.50;1.60;;;20.20;99.90;;;;;;4921017;29;20233;-85
2023/07/06 08:35:29;;;;;;;5.03;1.30;;;20.40;99.90;;;;;;4938538;29;20181;-86
2023/07/06 08:37:56;;;;;;;3.40;1.20;;;20.40;99.90;;;;;;4937860;29;20222;-87
2023/07/06 08:40:27;;;;;;;4.22;1.40;;;20.30;99.90;;;;;;4920748;29;20253;-88
2023/07/06 08:42:55;;;;;;;2.55;1.40;;;20.30;99.90;;;;;;4921614;29;20960;-88
2023/07/06 08:45:37;;;;;;;3.80;1.50;;;20.50;99.90;;;;;;4920935;29;20186;-86
2023/07/06 08:48:03;;;;;;;4.50;1.15;;;20.60;99.90;;;;;;4938174;29;20920;-86
2023/07/06 08:50:35;;;;;;;2.42;1.42;;;20.80;99.90;;;;;;4920778;29;20277;-87
2023/07/06 08:53:02;;;;;;;1.52;1.00;;;20.90;99.90;;;;;;4920893;29;20213;-87
2023/07/06 08:55:30;;;;;;;2.65;1.30;;;20.90;99.90;;;;;;4936812;29;20180;-87
2023/07/06 08:57:56;;;;;;;3.85;1.30;;;20.90;99.60;;;;;;4937885;29;20169;-85
2023/07/06 09:00:25;;;;;;;2.10;1.20;;;21.10;99.90;;;;;;4920864;29;20321;-85
2023/07/06 09:03:12;;;;;;;2.60;1.20;;;21.20;99.90;;;;;;4937730;29;20656;-84
2023/07/06 09:05:43;;;;;;;2.47;1.30;;;21.20;99.90;;;;;;4920746;29;20241;-86
2023/07/06 09:08:15;;;;;;;3.97;1.15;;;21.30;99.30;;;;;;4937681;29;20676;-84
2023/07/06 09:10:41;;;;;;;2.78;1.27;;;21.30;99.00;;;;;;4920342;29;20212;-86
2023/07/06 09:13:46;;;;;;;4.68;1.58;;;21.10;97.70;;;;;;4920382;29;20190;-87
2023/07/06 09:16:12;;;;;;;3.17;1.42;;;21.20;99.30;;;;;;4937636;29;20265;-85
2023/07/06 09:18:42;;;;;;;2.75;1.33;;;21.20;99.00;;;;;;4920467;29;20213;-87
2023/07/06 09:21:08;;;;;;;2.50;1.23;;;21.30;98.60;;;;;;4920218;29;20292;-85
2023/07/06 09:23:34;;;;;;;3.47;1.40;;;21.40;99.90;;;;;;4937492;29;20173;-86
2023/07/06 09:26:06;;;;;;;2.60;1.50;;;21.50;99.40;;;;;;4921316;29;20201;-85
2023/07/06 09:28:31;;;;;;;2.70;1.23;;;21.60;98.70;;;;;;4921286;29;20174;-90
2023/07/06 09:31:20;;;;;;;4.85;1.30;;;21.50;98.30;;;;;;4920103;29;20192;-85
2023/07/06 09:33:58;;;;;;;2.58;1.20;;;21.50;99.90;;;;;;4920535;29;20174;-84
2023/07/06 09:36:26;;;;;;;6.30;1.30;;;21.60;99.60;;;;;;4938297;29;20272;-90
2023/07/06 09:38:52;;;;;;;2.92;1.40;;;21.70;98.60;;;;;;4921106;29;20699;-86
2023/07/06 09:41:19;;;;;;;5.30;1.40;;;22.00;99.10;;;;;;4938575;29;20206;-91
2023/07/06 09:43:49;;;;;;;2.40;1.40;;;22.00;98.90;;;;;;4937195;29;20190;-88
2023/07/06 09:46:15;;;;;;;4.93;1.35;;;21.90;99.90;;;;;;4920879;29;20617;-87
2023/07/06 09:48:42;;;;;;;4.35;1.20;;;22.00;99.90;;;;;;4922619;29;20182;-86
2023/07/06 09:51:32;;;;;;;2.78;1.20;;;21.90;98.90;;;;;;4922231;29;20184;-87
2023/07/06 09:54:11;;;;;;;4.13;1.17;;;21.70;98.50;;;;;;4920183;29;20217;-84
2023/07/06 09:56:38;;;;;;;3.20;1.23;;;21.20;98.60;;;;;;4921312;29;20188;-85
2023/07/06 09:59:04;;;;;;;3.33;1.40;;;21.10;99.90;;;;;;4937856;29;20261;-85
2023/07/06 10:01:56;;;;;;;2.63;1.35;;;21.30;99.90;;;;;;4920376;29;20209;-87
2023/07/06 10:04:49;;;;;;;2.17;1.23;;;21.30;99.00;;;;;;4953299;29;20182;-89
2023/07/06 10:07:25;;;;;;;3.00;1.30;;;21.70;99.90;;;;;;4919246;29;20617;-85
2023/07/06 10:10:02;;;;;;;4.28;1.13;;;22.00;97.30;;;;;;4918593;29;20214;-88
2023/07/06 10:12:40;;;;;;;4.68;1.45;;;22.10;97.70;;;;;;4919667;29;20249;-88
2023/07/06 10:15:17;;;;;;;3.47;1.50;;;22.10;98.30;;;;;;4918113;29;20185;-88
2023/07/06 10:17:48;;;;;;;5.85;1.40;;;22.10;97.50;;;;;;4934217;29;20188;-91
2023/07/06 10:20:42;;;;;;;3.55;1.38;;;22.20;97.90;;;;;;4933705;29;20214;-87
2023/07/06 10:23:36;;;;;;;2.45;1.20;;;22.40;98.80;;;;;;4935348;29;20214;-86
2023/07/06 10:26:22;;;;;;;2.03;1.10;;;22.40;95.90;;;;;;4920239;29;20186;-86
2023/07/06 10:29:16;;;;;;;3.63;1.30;;;22.60;98.90;;;;;;4919728;29;20170;-87
2023/07/06 10:32:04;;;;;;;3.50;1.27;;;22.80;98.30;;;;;;4931470;29;20201;-87
2023/07/06 10:34:35;;;;;;;2.28;1.30;;;22.70;97.70;;;;;;4918567;29;20206;-85
2023/07/06 10:37:03;;;;;;;3.88;1.55;;;22.50;96.50;;;;;;4917498;29;20178;-86
2023/07/06 10:39:29;;;;;;;2.38;1.30;;;22.60;97.00;;;;;;4950148;29;20658;-86
2023/07/06 10:42:18;;;;;;;3.10;1.40;;;22.60;98.00;;;;;;4950881;29;20216;-85
2023/07/06 10:44:55;;;;;;;2.97;1.45;;;22.70;95.80;;;;;;4936363;29;20173;-85
2023/07/06 10:47:38;;;;;;;2.97;1.45;;;22.70;95.80;;;;;;4919398;29;20264;-84
2023/07/06 10:50:07;;;;;;;3.95;1.35;;;22.30;96.50;;;;;;4936378;29;20208;-86
2023/07/06 10:52:37;;;;;;;2.47;1.23;;;22.00;97.30;;;;;;4936233;29;20636;-83
2023/07/06 10:55:20;;;;;;;8.38;1.33;;;21.80;96.10;;;;;;4919036;29;20186;-84
2023/07/06 10:57:54;;;;;;;2.10;1.20;;;21.70;97.70;;;;;;4919009;29;20194;-83
2023/07/06 11:00:31;;;;;;;2.90;1.23;;;21.80;98.40;;;;;;4936053;29;20534;-84
2023/07/06 11:03:00;;;;;;;2.63;1.25;;;22.10;98.10;;;;;;4918698;29;20177;-84
2023/07/06 11:05:58;;;;;;;3.28;1.52;;;22.30;96.80;;;;;;4918949;29;20689;-85
2023/07/06 11:09:08;;;;;;;3.17;1.30;;;22.50;95.70;;;;;;4931113;29;20249;-85
2023/07/06 11:11:39;;;;;;;3.03;1.33;;;22.70;99.00;;;;;;4936076;29;20170;-83
2023/07/06 11:14:31;;;;;;;2.90;1.20;;;22.90;95.10;;;;;;4935880;29;20196;-86
2023/07/06 11:17:13;;;;;;;1.95;1.10;;;22.90;96.30;;;;;;4934851;29;20218;-83
2023/07/06 11:19:48;;;;;;;4.57;1.40;;;22.90;95.70;;;;;;4937863;29;20174;-85
2023/07/06 11:22:18;;;;;;;2.00;1.05;;;23.10;96.40;;;;;;4922201;29;20177;-83
2023/07/06 11:24:48;;;;;;;3.25;1.42;;;22.90;96.50;;;;;;4937671;29;20178;-84
2023/07/06 11:27:34;;;;;;;3.67;1.48;;;22.80;97.40;;;;;;4939342;29;20249;-84
2023/07/06 11:30:14;;;;;;;2.55;1.25;;;22.90;96.10;;;;;;4939201;29;20209;-86
2023/07/06 11:32:55;;;;;;;1.65;0.85;;;23.00;95.40;;;;;;4937971;29;20609;-85
2023/07/06 11:35:21;;;;;;;2.63;1.17;;;23.20;97.70;;;;;;4954030;29;20194;-84
2023/07/06 11:38:12;;;;;;;5.35;1.27;;;23.00;94.00;;;;;;4953118;29;20182;-87
2023/07/06 11:41:05;;;;;;;4.78;1.50;;;22.90;95.50;;;;;;4938545;29;20241;-83
2023/07/06 11:43:57;;;;;;;2.88;1.20;;;22.50;96.10;;;;;;4938769;29;20167;-85
2023/07/06 11:47:02;;;;;;;1.55;1.10;;;22.20;95.20;;;;;;4921725;29;20201;-84
2023/07/06 11:49:44;;;;;;;2.78;1.20;;;22.00;96.60;;;;;;4938830;29;20166;-85
2023/07/06 11:52:31;;;;;;;5.75;1.20;;;21.90;97.40;;;;;;4938710;29;20186;-84
2023/07/06 11:55:14;;;;;;;5.90;1.10;;;21.80;96.60;;;;;;4921203;29;20233;-84
2023/07/06 11:58:04;;;;;;;1.50;0.98;;;21.80;96.00;;;;;;4939000;29;20613;-85
2023/07/06 12:03:04;;;;;;;3.75;1.00;;;21.50;97.30;;;;;;4938836;29;20605;-83
2023/07/06 12:05:35;;;;;;;3.25;1.15;;;21.50;97.20;;;;;;4938675;29;20616;-86
2023/07/06 12:08:14;;;;;;;2.75;1.20;;;21.80;96.70;;;;;;4921597;29;20189;-85
2023/07/06 12:10:45;;;;;;;7.82;1.05;;;22.00;95.30;;;;;;4921045;29;20175;-86
2023/07/06 12:13:19;;;;;;;1.70;1.10;;;22.00;96.30;;;;;;4921548;29;20170;-87
2023/07/06 12:15:47;;;;;;;2.58;1.25;;;22.00;97.20;;;;;;4921347;29;20178;-88
2023/07/06 12:18:14;;;;;;;2.40;1.17;;;22.20;97.20;;;;;;4921485;29;20695;-87
2023/07/06 12:20:41;;;;;;;2.47;1.30;;;22.60;95.60;;;;;;4921431;29;20612;-83
2023/07/06 12:23:11;;;;;;;2.60;1.08;;;22.80;94.80;;;;;;4920984;29;20621;-83
2023/07/06 12:25:41;;;;;;;4.90;1.38;;;22.80;95.30;;;;;;4920992;29;20186;-86
2023/07/06 12:28:15;;;;;;;1.92;1.10;;;22.50;95.30;;;;;;4921065;29;20209;-85
2023/07/06 12:30:43;;;;;;;1.88;1.10;;;22.40;95.40;;;;;;4937348;29;20205;-86
2023/07/06 12:33:13;;;;;;;4.20;1.00;;;22.30;95.10;;;;;;4921014;29;20178;-85
2023/07/06 12:35:40;;;;;;;3.45;1.00;;;22.20;94.90;;;;;;4938109;29;20261;-86
2023/07/06 12:38:12;;;;;;;1.88;1.10;;;22.10;95.50;;;;;;4937871;29;20253;-84
2023/07/06 12:40:38;;;;;;;3.85;1.15;;;21.90;96.20;;;;;;4920483;29;20260;-84
2023/07/06 12:43:04;;;;;;;1.85;0.93;;;21.90;96.00;;;;;;4920559;29;20186;-85
2023/07/06 12:45:31;;;;;;;1.85;1.00;;;22.20;98.70;;;;;;4937875;29;20523;-85
2023/07/06 12:48:04;;;;;;;1.85;0.95;;;22.50;95.20;;;;;;4920426;29;20178;-87
2023/07/06 12:50:39;;;;;;;1.88;1.10;;;22.70;95.40;;;;;;4937584;29;20159;-86
2023/07/06 12:53:21;;;;;;;3.15;1.10;;;22.60;96.10;;;;;;4920445;29;20597;-85
2023/07/06 12:55:48;;;;;;;1.92;0.90;;;22.50;95.80;;;;;;4920351;29;20525;-86
2023/07/06 12:58:28;;;;;;;4.47;1.17;;;22.30;95.20;;;;;;4920498;29;20182;-86
2023/07/06 13:01:02;;;;;;;3.53;0.93;;;22.20;95.40;;;;;;4937254;29;20654;-86
2023/07/06 13:03:29;;;;;;;2.15;1.10;;;22.20;96.10;;;;;;4920369;29;20244;-87
2023/07/06 13:05:55;;;;;;;2.55;1.10;;;22.20;96.20;;;;;;4920375;29;20178;-86
2023/07/06 13:08:23;;;;;;;3.17;1.13;;;22.20;95.00;;;;;;4920502;29;20186;-86
2023/07/06 13:11:03;;;;;;;4.03;1.48;;;22.20;96.90;;;;;;4920153;29;20178;-87
2023/07/06 13:13:39;;;;;;;2.67;0.90;;;22.10;96.20;;;;;;4920214;29;20189;-84